Time;durP1;ratioP1;P1;durP2;ratioP2;P2;SDS_P1;SDS_P2;PMS_P1;PMS_P2;Temp;Humidity;BMP_temperature;BMP_pressure;BME280_temperature;BME280_humidity;BME280_pressure;Samples;Min_cycle;Max_cycle;Signal;HPM_P1;HPM_P2
2020/12/07 00:00:10;;;;;;;5.43;3.58;;;8.90;79.60;;;;;;5033310;28;20045;-44
2020/12/07 00:02:36;;;;;;;7.70;4.63;;;8.90;79.60;;;;;;5016538;28;20037;-43
2020/12/07 00:05:03;;;;;;;7.60;3.83;;;8.90;79.50;;;;;;5033194;28;20032;-43
2020/12/07 00:07:31;;;;;;;7.68;4.50;;;8.80;79.70;;;;;;5033084;28;20037;-43
2020/12/07 00:09:56;;;;;;;5.63;3.25;;;8.80;79.90;;;;;;5016715;28;20057;-43
2020/12/07 00:12:26;;;;;;;5.85;4.65;;;8.80;79.90;;;;;;5033206;28;20485;-44
2020/12/07 00:14:52;;;;;;;5.95;3.25;;;8.70;79.80;;;;;;5053049;28;20094;-44
2020/12/07 00:17:25;;;;;;;5.30;3.75;;;8.70;80.60;;;;;;5055295;28;20108;-42
2020/12/07 00:19:52;;;;;;;5.15;3.20;;;8.60;80.10;;;;;;5057380;28;20037;-43
2020/12/07 00:22:25;;;;;;;4.82;2.90;;;8.60;80.00;;;;;;5057563;28;20434;-46
2020/12/07 00:24:52;;;;;;;5.60;3.40;;;8.60;80.20;;;;;;5056459;28;20032;-44
2020/12/07 00:27:21;;;;;;;6.15;3.78;;;8.60;80.40;;;;;;5056648;28;20481;-48
2020/12/07 00:29:47;;;;;;;5.03;3.58;;;8.60;80.00;;;;;;5056971;28;20087;-45
2020/12/07 00:32:13;;;;;;;6.80;4.45;;;8.60;80.20;;;;;;5056704;28;20036;-44
2020/12/07 00:34:39;;;;;;;5.78;2.75;;;8.60;79.70;;;;;;5056187;28;20476;-43
2020/12/07 00:37:06;;;;;;;5.47;4.47;;;8.60;79.90;;;;;;5055707;28;20033;-44
2020/12/07 00:39:32;;;;;;;5.35;3.35;;;8.60;79.90;;;;;;5055863;28;20041;-46
2020/12/07 00:41:57;;;;;;;6.85;4.10;;;8.60;79.70;;;;;;5054774;28;20033;-43
2020/12/07 00:44:23;;;;;;;4.57;2.85;;;8.60;79.90;;;;;;5054871;28;20120;-45
2020/12/07 00:46:49;;;;;;;6.60;3.15;;;8.60;79.60;;;;;;5054681;28;20542;-45
2020/12/07 00:49:15;;;;;;;6.53;3.20;;;8.50;79.70;;;;;;5054878;28;20033;-43
2020/12/07 00:51:40;;;;;;;4.30;2.72;;;8.50;79.80;;;;;;5054518;28;20131;-44
2020/12/07 00:54:06;;;;;;;6.55;4.38;;;8.50;79.60;;;;;;5054656;28;20035;-42
2020/12/07 00:56:32;;;;;;;6.03;4.20;;;8.50;79.70;;;;;;5054588;28;20037;-45
2020/12/07 00:58:57;;;;;;;4.95;3.33;;;8.50;79.50;;;;;;5054321;28;20037;-43
2020/12/07 01:01:23;;;;;;;4.00;2.75;;;8.50;79.80;;;;;;5054473;28;20108;-45
2020/12/07 01:03:49;;;;;;;5.28;3.72;;;8.40;79.70;;;;;;5054342;28;20025;-44
2020/12/07 01:06:14;;;;;;;6.30;2.33;;;8.50;79.80;;;;;;5054222;28;20504;-46
2020/12/07 01:08:40;;;;;;;4.75;2.45;;;8.40;79.80;;;;;;5070371;28;20098;-45
2020/12/07 01:11:06;;;;;;;4.10;3.03;;;8.30;80.10;;;;;;5055935;28;20394;-44
2020/12/07 01:13:32;;;;;;;5.50;2.58;;;8.40;80.00;;;;;;5074258;28;20455;-45
2020/12/07 01:15:57;;;;;;;6.13;4.03;;;8.40;80.30;;;;;;5072973;28;20069;-43
2020/12/07 01:18:23;;;;;;;6.72;4.43;;;8.40;80.30;;;;;;5073992;28;20039;-46
2020/12/07 01:20:51;;;;;;;4.25;2.45;;;8.40;80.60;;;;;;5073933;28;20442;-45
2020/12/07 01:23:17;;;;;;;4.78;3.03;;;8.40;80.40;;;;;;5022457;28;20106;-42
2020/12/07 01:25:43;;;;;;;5.25;2.72;;;8.40;80.50;;;;;;5073982;28;20444;-45
2020/12/07 01:28:09;;;;;;;4.78;2.65;;;8.40;80.30;;;;;;5073812;28;20090;-43
2020/12/07 01:30:34;;;;;;;5.78;3.17;;;8.40;80.60;;;;;;5073793;28;20504;-44
2020/12/07 01:33:02;;;;;;;5.03;3.30;;;8.40;80.70;;;;;;5073631;28;20059;-46
2020/12/07 01:35:28;;;;;;;5.75;3.65;;;8.40;80.70;;;;;;5073805;28;20533;-43
2020/12/07 01:37:54;;;;;;;6.93;2.38;;;8.40;80.60;;;;;;5073798;28;20029;-45
2020/12/07 01:40:19;;;;;;;9.32;3.28;;;8.30;80.50;;;;;;5073590;28;20492;-42
2020/12/07 01:42:45;;;;;;;5.60;2.67;;;8.30;81.00;;;;;;5073742;28;20028;-45
2020/12/07 01:45:11;;;;;;;4.53;2.70;;;8.30;81.00;;;;;;5073720;28;20615;-44
2020/12/07 01:47:37;;;;;;;3.30;1.95;;;8.20;80.80;;;;;;5073654;28;20036;-44
2020/12/07 01:50:03;;;;;;;6.07;3.92;;;8.20;80.90;;;;;;5073469;28;20033;-44
2020/12/07 01:52:29;;;;;;;5.95;3.33;;;8.30;80.90;;;;;;5073399;28;20033;-44
2020/12/07 01:54:55;;;;;;;5.00;2.75;;;8.30;80.60;;;;;;5073547;28;20093;-43
2020/12/07 01:57:21;;;;;;;4.88;2.95;;;8.20;80.80;;;;;;5073308;28;20031;-45
2020/12/07 01:59:46;;;;;;;3.85;2.67;;;8.10;81.20;;;;;;5073401;28;20123;-45
2020/12/07 02:02:12;;;;;;;3.58;2.30;;;8.10;81.30;;;;;;5073277;28;20028;-45
2020/12/07 02:04:38;;;;;;;4.20;2.45;;;8.20;80.80;;;;;;5073324;28;20063;-45
2020/12/07 02:07:04;;;;;;;5.22;3.80;;;8.20;81.00;;;;;;5073069;28;20044;-44
2020/12/07 02:09:30;;;;;;;5.40;3.28;;;8.20;80.70;;;;;;5054839;28;20131;-44
2020/12/07 02:11:56;;;;;;;6.43;4.13;;;8.20;80.70;;;;;;5038367;28;20075;-45
2020/12/07 02:14:22;;;;;;;4.90;3.47;;;8.10;81.00;;;;;;5073353;28;20429;-45
2020/12/07 02:16:48;;;;;;;8.00;4.45;;;8.00;81.40;;;;;;5073331;28;20055;-43
2020/12/07 02:19:14;;;;;;;8.95;5.38;;;8.10;81.20;;;;;;5073098;28;20408;-46
2020/12/07 02:21:40;;;;;;;7.20;4.57;;;8.10;81.40;;;;;;5073419;28;20036;-44
2020/12/07 02:24:06;;;;;;;7.47;4.15;;;8.10;81.30;;;;;;5073189;28;20024;-45
2020/12/07 02:26:32;;;;;;;5.03;2.58;;;8.10;81.30;;;;;;5074381;28;20480;-45
2020/12/07 02:29:00;;;;;;;5.72;3.55;;;8.10;81.50;;;;;;5077283;28;20028;-47
2020/12/07 02:31:26;;;;;;;4.75;2.88;;;8.00;81.80;;;;;;5077338;28;20028;-46
2020/12/07 02:33:52;;;;;;;4.82;2.67;;;8.00;81.70;;;;;;5042468;28;20120;-46
2020/12/07 02:36:17;;;;;;;6.93;4.53;;;7.90;82.40;;;;;;5077214;28;20033;-43
2020/12/07 02:38:43;;;;;;;7.60;3.83;;;8.10;82.00;;;;;;5077113;28;20508;-47
2020/12/07 02:41:09;;;;;;;5.18;3.15;;;8.00;81.90;;;;;;5077117;28;20039;-42
2020/12/07 02:43:35;;;;;;;4.00;2.78;;;8.00;82.10;;;;;;5076891;28;20090;-43
2020/12/07 02:46:02;;;;;;;4.70;3.00;;;8.00;82.30;;;;;;5077039;28;20021;-42
2020/12/07 02:48:28;;;;;;;4.78;2.90;;;8.00;82.60;;;;;;5076869;28;20032;-43
2020/12/07 02:50:54;;;;;;;6.07;4.07;;;7.90;82.50;;;;;;5076948;28;20035;-45
2020/12/07 02:53:19;;;;;;;5.43;3.28;;;8.00;82.40;;;;;;5076879;28;20483;-43
2020/12/07 02:55:45;;;;;;;4.25;2.80;;;8.00;82.60;;;;;;5076806;28;20444;-47
2020/12/07 02:58:11;;;;;;;4.03;2.88;;;8.00;82.60;;;;;;5041424;28;20037;-42
2020/12/07 03:00:36;;;;;;;7.50;3.97;;;8.10;82.60;;;;;;5076677;28;20036;-42
2020/12/07 03:03:02;;;;;;;5.28;2.95;;;8.20;82.30;;;;;;5076790;28;20044;-43
2020/12/07 03:05:28;;;;;;;4.32;2.67;;;8.20;82.20;;;;;;5076659;28;20036;-43
2020/12/07 03:07:54;;;;;;;7.35;3.40;;;8.20;82.30;;;;;;5076492;28;20127;-45
2020/12/07 03:10:19;;;;;;;8.13;3.72;;;8.20;82.20;;;;;;5076515;28;20079;-44
2020/12/07 03:12:45;;;;;;;4.43;2.95;;;8.30;82.20;;;;;;5076591;28;20039;-43
2020/12/07 03:15:11;;;;;;;7.35;3.83;;;8.30;81.80;;;;;;5076360;28;20029;-46
2020/12/07 03:17:37;;;;;;;6.03;3.28;;;8.40;81.50;;;;;;5041202;28;20044;-42
2020/12/07 03:20:03;;;;;;;7.25;3.70;;;8.50;81.30;;;;;;5076396;28;20427;-45
2020/12/07 03:22:29;;;;;;;6.03;3.22;;;8.50;81.10;;;;;;5076693;28;20388;-44
2020/12/07 03:24:54;;;;;;;4.47;2.85;;;8.50;80.80;;;;;;5076281;28;20036;-44
2020/12/07 03:27:20;;;;;;;5.07;3.10;;;8.50;80.60;;;;;;5076365;28;20111;-44
2020/12/07 03:29:46;;;;;;;6.45;3.53;;;8.50;80.70;;;;;;5076229;28;20032;-46
2020/12/07 03:32:11;;;;;;;5.53;3.08;;;8.60;80.50;;;;;;5076137;28;20044;-42
2020/12/07 03:34:37;;;;;;;6.53;3.88;;;8.50;80.60;;;;;;5076068;28;20161;-43
2020/12/07 03:37:03;;;;;;;3.83;2.50;;;8.60;80.40;;;;;;5076089;28;20055;-45
2020/12/07 03:39:36;;;;;;;5.97;3.63;;;8.60;80.50;;;;;;5074709;28;20040;-45
2020/12/07 03:42:02;;;;;;;4.95;2.72;;;8.60;80.20;;;;;;5024268;28;20093;-46
2020/12/07 03:44:28;;;;;;;5.93;3.80;;;8.60;80.00;;;;;;5075972;28;20112;-47
2020/12/07 03:46:54;;;;;;;6.05;4.03;;;8.60;80.20;;;;;;5075996;28;20029;-42
2020/12/07 03:49:19;;;;;;;4.38;2.83;;;8.60;80.10;;;;;;5075822;28;20508;-46
2020/12/07 03:51:45;;;;;;;5.15;3.20;;;8.60;80.20;;;;;;5075950;28;20028;-43
2020/12/07 03:54:11;;;;;;;4.32;3.05;;;8.60;79.90;;;;;;5075892;28;20032;-45
2020/12/07 03:56:36;;;;;;;5.47;2.75;;;8.50;79.90;;;;;;5075609;28;20029;-42
2020/12/07 03:59:02;;;;;;;3.83;2.67;;;8.60;79.70;;;;;;5075570;28;20028;-45
2020/12/07 04:01:28;;;;;;;4.43;2.95;;;8.60;79.60;;;;;;5075663;28;20037;-43
2020/12/07 04:03:59;;;;;;;7.57;3.63;;;8.60;79.30;;;;;;5040458;28;20059;-44
2020/12/07 04:06:28;;;;;;;4.25;2.58;;;8.60;79.70;;;;;;5076310;28;20493;-46
2020/12/07 04:08:54;;;;;;;4.18;2.65;;;8.60;79.60;;;;;;5075872;28;20136;-44
2020/12/07 04:11:20;;;;;;;4.47;2.70;;;8.60;79.50;;;;;;5076008;28;20444;-45
2020/12/07 04:13:46;;;;;;;4.75;2.90;;;8.60;79.60;;;;;;5076014;28;20387;-43
2020/12/07 04:16:11;;;;;;;6.38;3.08;;;8.60;79.50;;;;;;5075712;28;20111;-42
2020/12/07 04:18:37;;;;;;;2.75;1.88;;;8.60;79.40;;;;;;5075182;28;20071;-44
2020/12/07 04:21:03;;;;;;;5.47;3.13;;;8.60;79.50;;;;;;5075248;28;20553;-46
2020/12/07 04:23:30;;;;;;;4.05;2.33;;;8.60;79.30;;;;;;5074759;28;20032;-46
2020/12/07 04:25:56;;;;;;;5.75;3.58;;;8.70;79.10;;;;;;5075107;28;20029;-43
2020/12/07 04:28:22;;;;;;;4.18;2.70;;;8.70;78.90;;;;;;5074931;28;20037;-43
2020/12/07 04:30:49;;;;;;;5.78;3.45;;;8.60;79.20;;;;;;5075362;28;20040;-43
2020/12/07 04:33:15;;;;;;;5.30;3.25;;;8.70;79.30;;;;;;5074895;28;20392;-43
2020/12/07 04:35:41;;;;;;;3.83;2.47;;;8.70;79.10;;;;;;5074866;28;20036;-45
2020/12/07 04:38:07;;;;;;;4.13;2.45;;;8.70;79.10;;;;;;5074923;28;20060;-44
2020/12/07 04:40:34;;;;;;;3.95;2.45;;;8.70;79.30;;;;;;5074800;28;20376;-44
2020/12/07 04:43:00;;;;;;;3.92;2.53;;;8.70;79.40;;;;;;5074776;28;20032;-45
2020/12/07 04:45:26;;;;;;;4.22;3.03;;;8.60;79.20;;;;;;5074595;28;20039;-43
2020/12/07 04:47:52;;;;;;;5.80;3.28;;;8.60;79.20;;;;;;5074494;28;20036;-43
2020/12/07 04:50:23;;;;;;;5.80;3.80;;;8.70;79.10;;;;;;5056112;28;20032;-43
2020/12/07 04:52:49;;;;;;;4.28;2.58;;;8.70;79.10;;;;;;5074813;28;20411;-46
2020/12/07 04:55:16;;;;;;;4.82;3.25;;;8.60;79.20;;;;;;5056861;28;20037;-46
2020/12/07 04:57:43;;;;;;;3.88;2.85;;;8.70;79.20;;;;;;5074554;28;20029;-45
2020/12/07 05:00:09;;;;;;;6.25;3.40;;;8.70;79.00;;;;;;5074548;28;20047;-46
2020/12/07 05:02:38;;;;;;;6.95;3.45;;;8.70;79.30;;;;;;5074180;28;20501;-46
2020/12/07 05:05:06;;;;;;;5.78;3.28;;;8.60;79.30;;;;;;5074421;28;20437;-42
2020/12/07 05:07:36;;;;;;;5.03;3.35;;;8.70;79.50;;;;;;5074169;28;20089;-43
2020/12/07 05:10:16;;;;;;;5.53;3.15;;;8.70;79.50;;;;;;5074398;28;20097;-44
2020/12/07 05:12:47;;;;;;;5.93;3.60;;;8.70;79.60;;;;;;5027554;28;20040;-46
2020/12/07 05:15:15;;;;;;;5.05;3.33;;;8.70;79.20;;;;;;5074067;28;20476;-45
2020/12/07 05:17:42;;;;;;;7.18;3.25;;;8.80;79.40;;;;;;5073942;28;20025;-44
2020/12/07 05:20:08;;;;;;;4.82;2.70;;;8.80;79.10;;;;;;5074010;28;20507;-46
2020/12/07 05:22:35;;;;;;;4.32;2.75;;;8.80;79.10;;;;;;5074128;28;20103;-43
2020/12/07 05:25:05;;;;;;;3.58;2.88;;;8.90;78.90;;;;;;5074093;28;20392;-43
2020/12/07 05:27:32;;;;;;;5.10;4.13;;;8.90;78.80;;;;;;5073912;28;20392;-44
2020/12/07 05:32:34;;;;;;;5.05;4.13;;;9.00;78.80;;;;;;5073891;28;20044;-47
2020/12/07 05:35:02;;;;;;;2.83;2.03;;;9.00;78.70;;;;;;5055455;28;20040;-49
2020/12/07 05:37:31;;;;;;;5.90;3.95;;;9.00;78.90;;;;;;5073633;28;20024;-49
2020/12/07 05:40:00;;;;;;;4.10;2.78;;;9.00;78.80;;;;;;5073993;28;20037;-50
2020/12/07 05:42:27;;;;;;;7.28;3.97;;;9.00;78.70;;;;;;5073647;28;20028;-49
2020/12/07 05:44:55;;;;;;;4.78;3.60;;;9.00;78.80;;;;;;5073728;28;20032;-46
2020/12/07 05:47:22;;;;;;;6.18;3.88;;;9.00;78.80;;;;;;5073615;28;20036;-51
2020/12/07 05:49:52;;;;;;;3.78;3.05;;;9.10;78.60;;;;;;5072759;28;20472;-47
2020/12/07 05:52:44;;;;;;;3.83;2.97;;;9.10;78.60;;;;;;5073207;28;20051;-47
2020/12/07 05:55:10;;;;;;;;;;;9.10;78.60;;;;;;5053582;28;20381;-46
2020/12/07 05:58:01;;;;;;;6.18;3.63;;;9.10;78.40;;;;;;5053963;28;19916;-44
2020/12/07 06:00:31;;;;;;;5.78;4.10;;;9.10;78.60;;;;;;5053391;28;20047;-48
2020/12/07 06:02:58;;;;;;;5.68;3.65;;;9.20;78.40;;;;;;5058092;28;20053;-46
2020/12/07 06:05:24;;;;;;;3.38;2.50;;;9.20;78.20;;;;;;5073475;28;20082;-48
2020/12/07 06:08:07;;;;;;;7.50;4.13;;;9.20;77.90;;;;;;5072821;28;20036;-49
2020/12/07 06:10:47;;;;;;;4.85;3.10;;;9.30;78.00;;;;;;5071163;28;20024;-47
2020/12/07 06:13:17;;;;;;;5.50;3.17;;;9.20;78.00;;;;;;5071509;28;20032;-48
2020/12/07 06:15:44;;;;;;;9.85;4.68;;;9.30;78.00;;;;;;5073482;28;20109;-48
2020/12/07 06:18:30;;;;;;;4.28;2.95;;;9.30;78.20;;;;;;5073354;28;20029;-50
2020/12/07 06:21:19;;;;;;;6.20;3.05;;;9.30;78.70;;;;;;5073206;28;20500;-48
2020/12/07 06:23:46;;;;;;;8.02;5.85;;;9.40;78.00;;;;;;5073294;28;20379;-49
2020/12/07 06:26:14;;;;;;;5.60;3.35;;;;;;;;;;5073410;28;20028;-48
2020/12/07 06:28:44;;;;;;;9.20;7.85;;;9.40;77.00;;;;;;5038139;28;20041;-47
2020/12/07 06:31:15;;;;;;;5.43;2.78;;;9.60;77.70;;;;;;5073437;28;20428;-47
2020/12/07 06:33:45;;;;;;;11.75;6.03;;;9.50;77.30;;;;;;5073066;28;20029;-49
2020/12/07 06:36:29;;;;;;;9.15;6.40;;;9.60;77.50;;;;;;5073458;28;20025;-49
2020/12/07 06:39:00;;;;;;;18.77;4.07;;;9.60;77.00;;;;;;5072939;28;20391;-49
2020/12/07 06:41:40;;;;;;;7.72;5.13;;;9.50;77.20;;;;;;5073036;28;20032;-48
2020/12/07 06:44:12;;;;;;;5.70;3.38;;;9.50;77.30;;;;;;5073111;28;20052;-48
2020/12/07 06:47:06;;;;;;;7.00;5.13;;;9.50;77.90;;;;;;5073219;28;20036;-48
2020/12/07 06:49:48;;;;;;;7.07;3.83;;;9.50;77.70;;;;;;5073045;28;20033;-48
2020/12/07 06:52:26;;;;;;;8.38;5.28;;;9.50;77.70;;;;;;5073668;28;20041;-48
2020/12/07 06:57:38;;;;;;;13.05;4.40;;;9.60;77.00;;;;;;5073091;28;20048;-48
2020/12/07 07:00:26;;;;;;;5.40;3.50;;;9.70;76.70;;;;;;5072775;28;20044;-48
2020/12/07 07:02:59;;;;;;;8.18;4.55;;;9.60;77.00;;;;;;5072717;28;20053;-48
2020/12/07 07:05:27;;;;;;;12.25;7.13;;;9.60;77.40;;;;;;5073131;28;20064;-48
2020/12/07 07:07:54;;;;;;;10.13;6.22;;;9.60;77.80;;;;;;5072595;28;20056;-49
2020/12/07 07:10:20;;;;;;;6.68;4.70;;;9.60;77.50;;;;;;5072949;28;20362;-48
2020/12/07 07:12:47;;;;;;;9.50;6.75;;;9.60;77.00;;;;;;5074478;28;20032;-49
2020/12/07 07:15:14;;;;;;;6.97;5.25;;;9.70;76.70;;;;;;5076558;28;20115;-48
2020/12/07 07:17:41;;;;;;;11.25;6.07;;;9.60;76.50;;;;;;5076421;28;20119;-48
2020/12/07 07:20:09;;;;;;;9.50;5.32;;;9.60;77.00;;;;;;5076317;28;20080;-48
2020/12/07 07:22:39;;;;;;;10.25;6.70;;;9.50;76.60;;;;;;5076401;28;20040;-48
2020/12/07 07:30:25;;;;;;;7.65;5.25;;;9.60;76.80;;;;;;5061252;28;20032;-48
2020/12/07 07:32:52;;;;;;;6.25;5.07;;;9.60;76.80;;;;;;5076411;28;20082;-48
2020/12/07 07:35:24;;;;;;;8.25;5.47;;;9.60;76.60;;;;;;5076260;28;20024;-49
2020/12/07 07:37:51;;;;;;;7.47;5.55;;;9.60;77.00;;;;;;5076339;28;20051;-48
2020/12/07 07:40:19;;;;;;;8.07;6.35;;;9.60;76.50;;;;;;5075913;28;20052;-49
2020/12/07 07:42:46;;;;;;;9.38;4.50;;;9.60;76.70;;;;;;5076364;28;20099;-48
2020/12/07 07:45:13;;;;;;;6.20;4.30;;;9.50;76.00;;;;;;5075474;28;20052;-50
2020/12/07 07:48:06;;;;;;;7.47;4.68;;;9.30;76.00;;;;;;5076005;28;20028;-48
2020/12/07 08:17:51;;;;;;;3.50;2.60;;;9.10;76.50;;;;;;4955400;29;20031;-48
2020/12/07 08:20:19;;;;;;;8.30;6.00;;;9.10;76.00;;;;;;4923200;29;20058;-48
2020/12/07 08:23:01;;;;;;;7.68;5.28;;;9.20;76.40;;;;;;4955045;29;20455;-48
2020/12/07 08:25:45;;;;;;;7.97;4.55;;;9.20;75.90;;;;;;4938522;29;20035;-48
2020/12/07 08:28:37;;;;;;;9.10;5.43;;;9.30;75.40;;;;;;4923174;29;20066;-48
2020/12/07 08:31:08;;;;;;;11.53;7.83;;;9.30;75.50;;;;;;4954934;29;20122;-48
2020/12/07 08:33:37;;;;;;;10.15;6.18;;;9.20;76.10;;;;;;4954978;29;20036;-48
2020/12/07 08:36:04;;;;;;;8.90;4.60;;;9.30;75.90;;;;;;4954897;29;20035;-49
2020/12/07 08:38:33;;;;;;;10.32;4.97;;;9.30;75.50;;;;;;4933885;29;20111;-48
2020/12/07 08:41:12;;;;;;;9.80;4.35;;;9.40;75.40;;;;;;4971998;28;20057;-48
2020/12/07 08:43:40;;;;;;;8.73;4.35;;;9.40;75.40;;;;;;4973654;28;20051;-48
2020/12/07 08:46:08;;;;;;;7.75;4.15;;;9.30;75.30;;;;;;4973880;28;20039;-48
2020/12/07 08:48:35;;;;;;;7.78;4.22;;;9.40;75.20;;;;;;4972596;28;20162;-44
2020/12/07 08:51:00;;;;;;;7.95;5.10;;;9.30;75.40;;;;;;4992394;28;20076;-43
2020/12/07 08:53:26;;;;;;;8.63;4.43;;;9.30;75.70;;;;;;5018292;28;20080;-47
2020/12/07 08:55:52;;;;;;;7.03;3.42;;;9.30;76.00;;;;;;5035425;28;20064;-44
2020/12/07 08:58:18;;;;;;;5.95;3.45;;;9.20;76.10;;;;;;5054179;28;20025;-48
2020/12/07 09:00:43;;;;;;;5.68;3.60;;;9.20;76.10;;;;;;5032027;28;20055;-47
2020/12/07 09:03:09;;;;;;;5.00;3.67;;;9.20;75.50;;;;;;5056782;28;20075;-45
2020/12/07 09:05:35;;;;;;;8.27;4.88;;;9.20;75.80;;;;;;5075571;28;20032;-46
2020/12/07 09:08:01;;;;;;;5.20;3.20;;;9.30;75.30;;;;;;5023733;28;20048;-46
2020/12/07 09:10:26;;;;;;;8.32;3.70;;;9.30;75.30;;;;;;5075228;28;20067;-48
2020/12/07 09:12:52;;;;;;;11.27;5.60;;;9.30;75.00;;;;;;5056380;28;20074;-50
2020/12/07 09:15:18;;;;;;;8.02;4.32;;;9.40;75.20;;;;;;5074245;28;20025;-46
2020/12/07 09:17:44;;;;;;;9.27;4.90;;;9.40;74.90;;;;;;5055474;28;20033;-48
2020/12/07 09:20:10;;;;;;;14.23;7.88;;;9.40;74.50;;;;;;5073646;28;20036;-48
2020/12/07 09:22:35;;;;;;;11.98;6.28;;;9.50;74.60;;;;;;5038986;28;20036;-46
2020/12/07 09:25:01;;;;;;;8.13;5.43;;;9.50;74.60;;;;;;5074153;28;20035;-49
2020/12/07 09:27:27;;;;;;;9.45;5.55;;;9.50;74.00;;;;;;5074035;28;20024;-46
2020/12/07 09:29:52;;;;;;;8.68;5.10;;;9.50;74.30;;;;;;5074086;28;20030;-48
2020/12/07 09:32:18;;;;;;;7.65;4.95;;;9.50;74.40;;;;;;5073898;28;20078;-47
2020/12/07 09:34:44;;;;;;;7.28;4.88;;;9.50;74.10;;;;;;5038832;28;20041;-48
2020/12/07 09:37:09;;;;;;;5.57;3.75;;;9.40;74.40;;;;;;5072983;28;20028;-49
2020/12/07 09:39:35;;;;;;;5.63;3.72;;;9.40;74.20;;;;;;5074047;28;20039;-47
2020/12/07 09:42:01;;;;;;;6.90;4.60;;;9.30;74.00;;;;;;5073732;28;20173;-46
2020/12/07 09:44:27;;;;;;;6.63;3.95;;;9.30;74.40;;;;;;5073939;28;20025;-48
2020/12/07 09:46:52;;;;;;;7.10;4.95;;;9.30;74.40;;;;;;5016288;28;20043;-47
2020/12/07 09:49:21;;;;;;;6.03;3.83;;;9.30;74.80;;;;;;5041936;28;20463;-46
2020/12/07 09:51:47;;;;;;;8.88;6.32;;;9.30;75.30;;;;;;5093707;28;20471;-48
2020/12/07 09:54:14;;;;;;;10.57;5.50;;;9.40;75.90;;;;;;5074956;28;20028;-47
2020/12/07 09:56:39;;;;;;;9.75;5.78;;;9.40;75.30;;;;;;5093856;28;20028;-48
2020/12/07 09:59:05;;;;;;;8.40;4.85;;;9.40;75.00;;;;;;5093636;28;20379;-46
2020/12/07 10:01:31;;;;;;;7.95;5.18;;;9.40;75.30;;;;;;5041877;28;20371;-48
2020/12/07 10:03:57;;;;;;;9.77;6.03;;;9.40;74.90;;;;;;5093841;28;20024;-48
2020/12/07 10:06:22;;;;;;;8.40;5.07;;;9.50;75.00;;;;;;5093497;28;20122;-47
2020/12/07 10:08:48;;;;;;;8.73;6.63;;;9.50;74.40;;;;;;5093589;28;20048;-47
2020/12/07 10:11:14;;;;;;;8.10;5.20;;;9.60;75.00;;;;;;5093754;28;20032;-49
2020/12/07 10:13:41;;;;;;;8.68;4.60;;;9.50;74.60;;;;;;5075578;28;20440;-48
2020/12/07 10:16:07;;;;;;;9.93;5.68;;;9.60;74.70;;;;;;5093730;28;20035;-50
2020/12/07 10:18:32;;;;;;;6.88;4.88;;;9.60;74.40;;;;;;5093138;28;20095;-46
2020/12/07 10:20:58;;;;;;;8.35;5.63;;;9.70;74.60;;;;;;5093939;28;20516;-48
2020/12/07 10:23:24;;;;;;;7.90;5.32;;;9.70;74.40;;;;;;5093478;28;20035;-48
2020/12/07 10:25:53;;;;;;;9.23;5.80;;;;;;;;;;5057907;28;20090;-48
2020/12/07 10:28:19;;;;;;;11.15;5.85;;;10.00;88.80;;;;;;5093451;28;20078;-46
2020/12/07 10:30:45;;;;;;;10.82;6.53;;;9.90;74.70;;;;;;5093667;28;20024;-47
2020/12/07 10:33:11;;;;;;;8.95;5.57;;;9.90;74.90;;;;;;5093800;28;20028;-47
2020/12/07 10:35:37;;;;;;;10.90;6.15;;;10.00;73.70;;;;;;5093375;28;20024;-48
2020/12/07 10:38:03;;;;;;;13.38;6.10;;;10.10;74.90;;;;;;5093371;28;20047;-47
2020/12/07 10:40:29;;;;;;;12.25;7.00;;;9.90;74.70;;;;;;5057637;28;20040;-48
2020/12/07 10:42:56;;;;;;;14.40;7.72;;;9.90;74.70;;;;;;5093415;28;20036;-47
2020/12/07 10:45:21;;;;;;;15.82;8.82;;;9.90;74.20;;;;;;5093286;28;20464;-47
2020/12/07 10:47:48;;;;;;;11.35;6.40;;;9.80;73.40;;;;;;5094805;28;20032;-47
2020/12/07 10:50:14;;;;;;;10.13;5.93;;;9.90;73.00;;;;;;5045787;28;20486;-47
2020/12/07 10:52:40;;;;;;;13.95;6.45;;;10.00;72.30;;;;;;5097273;28;20056;-47
2020/12/07 10:55:05;;;;;;;8.73;5.97;;;10.00;71.70;;;;;;5097423;28;20545;-47
2020/12/07 10:57:31;;;;;;;10.07;6.30;;;10.00;72.00;;;;;;5095605;28;20106;-47
2020/12/07 10:59:57;;;;;;;10.75;6.68;;;10.00;71.30;;;;;;5079959;28;20504;-47
2020/12/07 11:02:22;;;;;;;14.07;7.95;;;10.20;71.70;;;;;;5074510;28;20028;-46
2020/12/07 11:04:48;;;;;;;12.32;8.05;;;10.30;71.40;;;;;;5019622;28;20032;-46
2020/12/07 11:07:17;;;;;;;12.60;8.30;;;;;;;;;;5015947;28;20031;-47
2020/12/07 11:09:43;;;;;;;13.90;9.20;;;10.30;70.60;;;;;;5070932;28;21298;-47
2020/12/07 11:12:13;;;;;;;10.45;7.88;;;10.50;71.40;;;;;;5036327;28;20037;-47
2020/12/07 11:14:39;;;;;;;10.93;6.22;;;10.50;71.40;;;;;;5037838;28;20124;-48
2020/12/07 11:17:06;;;;;;;9.57;6.03;;;10.30;71.40;;;;;;5056649;28;20731;-46
2020/12/07 11:19:31;;;;;;;13.23;6.93;;;10.50;72.10;;;;;;5071278;28;20044;-46
2020/12/07 11:21:57;;;;;;;11.05;7.43;;;10.60;72.00;;;;;;5075061;28;20032;-47
2020/12/07 11:24:23;;;;;;;11.70;8.00;;;10.60;71.60;;;;;;5076417;28;20021;-46
2020/12/07 11:26:49;;;;;;;13.15;7.68;;;10.60;72.30;;;;;;5076051;28;20033;-47
2020/12/07 11:29:14;;;;;;;12.38;8.48;;;10.50;71.40;;;;;;5075475;28;20115;-45
2020/12/07 11:31:40;;;;;;;14.82;9.15;;;10.70;71.80;;;;;;5076070;28;20107;-45
2020/12/07 11:34:06;;;;;;;17.35;11.50;;;10.70;72.10;;;;;;5075142;28;20028;-46
2020/12/07 11:36:32;;;;;;;15.60;10.55;;;10.60;72.30;;;;;;5075498;28;20024;-46
2020/12/07 11:44:05;;;;;;;10.50;6.25;;;10.40;72.10;;;;;;5091604;28;20043;-45
2020/12/07 11:46:40;;;;;;;22.60;11.80;;;10.30;72.10;;;;;;5096136;28;20036;-45
2020/12/07 11:49:06;;;;;;;16.98;8.88;;;10.30;72.50;;;;;;5096146;28;20471;-45
2020/12/07 11:51:32;;;;;;;20.02;12.32;;;10.30;71.30;;;;;;5096132;28;20614;-46
2020/12/07 11:53:58;;;;;;;16.80;11.68;;;10.30;71.80;;;;;;5096115;28;20066;-45
2020/12/07 11:56:27;;;;;;;12.50;7.25;;;10.40;72.60;;;;;;5096016;28;20055;-45
2020/12/07 11:58:53;;;;;;;7.35;4.60;;;10.20;72.70;;;;;;5094844;28;20036;-44
2020/12/07 12:01:18;;;;;;;9.70;5.72;;;10.10;72.70;;;;;;5096022;28;20020;-45
2020/12/07 12:03:44;;;;;;;7.75;4.78;;;10.10;73.80;;;;;;5095700;28;20027;-45
2020/12/07 12:06:10;;;;;;;8.95;6.10;;;10.00;73.50;;;;;;5095784;28;20028;-46
2020/12/07 12:08:35;;;;;;;11.15;6.35;;;9.90;75.40;;;;;;5095647;28;20059;-46
2020/12/07 12:11:01;;;;;;;10.80;6.22;;;9.80;75.30;;;;;;5043382;28;20036;-47
2020/12/07 12:13:27;;;;;;;7.18;4.15;;;9.90;75.20;;;;;;5095757;28;20052;-45
2020/12/07 12:15:53;;;;;;;12.02;7.20;;;9.80;74.70;;;;;;5095823;28;20081;-46
2020/12/07 12:18:18;;;;;;;12.77;7.43;;;9.80;75.50;;;;;;5043522;28;20172;-46
2020/12/07 12:20:49;;;;;;;10.65;6.90;;;9.90;76.10;;;;;;5095510;28;20085;-45
2020/12/07 12:23:14;;;;;;;12.00;7.20;;;9.90;75.70;;;;;;5095582;28;20032;-45
2020/12/07 12:25:40;;;;;;;15.75;11.98;;;9.80;76.10;;;;;;5095296;28;20544;-46
2020/12/07 12:28:07;;;;;;;11.27;6.80;;;9.80;76.90;;;;;;5059913;28;20039;-46
2020/12/07 12:30:33;;;;;;;10.15;5.35;;;9.80;77.10;;;;;;5095273;28;20024;-45
2020/12/07 12:32:58;;;;;;;9.27;5.63;;;9.80;76.80;;;;;;5095186;28;20032;-50
2020/12/07 12:35:25;;;;;;;10.90;7.13;;;9.60;78.70;;;;;;5095403;28;20471;-47
2020/12/07 12:37:51;;;;;;;10.20;6.55;;;9.70;80.10;;;;;;5095138;28;20035;-48
2020/12/07 12:40:17;;;;;;;10.45;7.03;;;9.50;80.10;;;;;;5094971;28;20395;-48
2020/12/07 12:42:43;;;;;;;9.77;5.72;;;9.60;79.80;;;;;;5076226;28;20036;-48
2020/12/07 12:45:10;;;;;;;8.65;6.07;;;9.50;80.20;;;;;;5095454;28;20031;-48
2020/12/07 12:47:35;;;;;;;10.55;6.70;;;9.60;80.90;;;;;;5095210;28;20039;-47
2020/12/07 12:50:01;;;;;;;12.23;6.80;;;9.60;81.60;;;;;;5094983;28;20456;-47
2020/12/07 12:52:27;;;;;;;10.73;7.25;;;9.50;81.50;;;;;;5043106;28;20101;-47
2020/12/07 12:54:52;;;;;;;9.40;5.93;;;9.50;81.00;;;;;;5094667;28;20031;-48
2020/12/07 12:57:18;;;;;;;11.55;6.47;;;9.40;82.20;;;;;;5059633;28;20032;-47
2020/12/07 12:59:44;;;;;;;15.80;7.72;;;9.40;81.90;;;;;;5042724;28;20036;-47
2020/12/07 13:02:09;;;;;;;9.15;5.53;;;9.40;82.70;;;;;;5042916;28;20058;-47
2020/12/07 13:04:35;;;;;;;11.40;7.50;;;9.30;82.60;;;;;;5094767;28;20028;-48
2020/12/07 13:07:01;;;;;;;8.55;5.05;;;9.30;82.60;;;;;;5094543;28;20032;-49
2020/12/07 13:09:27;;;;;;;8.73;5.60;;;9.20;82.70;;;;;;5094678;28;20107;-47
2020/12/07 13:11:52;;;;;;;9.55;6.15;;;9.10;83.10;;;;;;5094457;28;20027;-47
2020/12/07 13:14:18;;;;;;;9.80;5.93;;;9.10;83.30;;;;;;5094579;28;20472;-48
2020/12/07 13:19:21;;;;;;;8.60;6.53;;;9.30;83.00;;;;;;5094554;28;20036;-47
2020/12/07 13:22:00;;;;;;;12.50;7.75;;;9.30;83.50;;;;;;5094473;28;20028;-47
2020/12/07 13:24:39;;;;;;;9.98;5.82;;;9.10;82.90;;;;;;5094486;28;20027;-47
2020/12/07 13:29:49;;;;;;;15.40;9.43;;;9.10;84.00;;;;;;5094367;28;20085;-47
2020/12/07 13:32:15;;;;;;;21.52;11.05;;;9.00;83.60;;;;;;5075179;28;20051;-47
2020/12/07 13:34:41;;;;;;;32.65;15.05;;;8.90;83.70;;;;;;5094332;28;20515;-47
2020/12/07 13:37:07;;;;;;;37.80;16.85;;;8.90;84.10;;;;;;5094086;28;20020;-48
2020/12/07 13:39:32;;;;;;;30.38;14.68;;;9.10;85.00;;;;;;5094119;28;20032;-47
2020/12/07 13:41:58;;;;;;;18.50;8.65;;;9.10;83.80;;;;;;5059274;28;20039;-47
2020/12/07 13:44:24;;;;;;;20.45;10.52;;;8.90;83.50;;;;;;5094256;28;20071;-47